sensor_id;sensor_type;location;lat;lon;timestamp;pressure;altitude;pressure_sealevel;temperature;humidity
50103;BME280;35993;52.604;10.078;2023-03-16T00:01:11;101666.25;;;-0.08;100.00
50103;BME280;35993;52.604;10.078;2023-03-16T00:03:36;101655.69;;;-0.09;100.00
50103;BME280;35993;52.604;10.078;2023-03-16T00:06:02;101673.06;;;-0.15;100.00
50103;BME280;35993;52.604;10.078;2023-03-16T00:08:27;101667.94;;;-0.18;100.00
50103;BME280;35993;52.604;10.078;2023-03-16T00:10:53;101669.19;;;-0.22;100.00
50103;BME280;35993;52.604;10.078;2023-03-16T00:13:21;101664.09;;;-0.25;100.00
50103;BME280;35993;52.604;10.078;2023-03-16T00:15:55;101669.19;;;-0.34;100.00
50103;BME280;35993;52.604;10.078;2023-03-16T00:18:22;101663.72;;;-0.32;100.00
50103;BME280;35993;52.604;10.078;2023-03-16T00:20:52;101666.28;;;-0.30;100.00
50103;BME280;35993;52.604;10.078;2023-03-16T00:23:20;101657.69;;;-0.34;100.00
50103;BME280;35993;52.604;10.078;2023-03-16T00:26:03;101662.66;;;-0.41;100.00
50103;BME280;35993;52.604;10.078;2023-03-16T00:28:31;101660.81;;;-0.40;100.00
50103;BME280;35993;52.604;10.078;2023-03-16T00:31:04;101664.31;;;-0.40;100.00
50103;BME280;35993;52.604;10.078;2023-03-16T00:33:30;101665.41;;;-0.42;100.00
50103;BME280;35993;52.604;10.078;2023-03-16T00:36:00;101662.28;;;-0.47;100.00
50103;BME280;35993;52.604;10.078;2023-03-16T00:38:32;101662.28;;;-0.47;100.00
50103;BME280;35993;52.604;10.078;2023-03-16T00:41:03;101660.69;;;-0.50;100.00
50103;BME280;35993;52.604;10.078;2023-03-16T00:43:30;101657.81;;;-0.47;100.00
50103;BME280;35993;52.604;10.078;2023-03-16T00:46:00;101661.66;;;-0.40;100.00
50103;BME280;35993;52.604;10.078;2023-03-16T00:48:41;101652.22;;;-0.32;100.00
50103;BME280;35993;52.604;10.078;2023-03-16T00:51:11;101652.69;;;-0.39;100.00
50103;BME280;35993;52.604;10.078;2023-03-16T00:53:41;101644.59;;;-0.48;100.00
50103;BME280;35993;52.604;10.078;2023-03-16T00:56:08;101643.72;;;-0.60;100.00
50103;BME280;35993;52.604;10.078;2023-03-16T00:58:37;101648.22;;;-0.61;100.00
50103;BME280;35993;52.604;10.078;2023-03-16T01:01:11;101655.25;;;-0.60;100.00
50103;BME280;35993;52.604;10.078;2023-03-16T01:03:38;101651.63;;;-0.59;100.00
50103;BME280;35993;52.604;10.078;2023-03-16T01:06:08;101654.16;;;-0.69;100.00
50103;BME280;35993;52.604;10.078;2023-03-16T01:08:36;101647.59;;;-0.76;100.00
50103;BME280;35993;52.604;10.078;2023-03-16T01:11:06;101650.38;;;-0.77;100.00
50103;BME280;35993;52.604;10.078;2023-03-16T01:13:33;101661.31;;;-0.80;100.00
50103;BME280;35993;52.604;10.078;2023-03-16T01:15:59;101661.78;;;-0.75;100.00
50103;BME280;35993;52.604;10.078;2023-03-16T01:18:26;101665.28;;;-0.75;100.00
50103;BME280;35993;52.604;10.078;2023-03-16T01:20:52;101650.63;;;-0.80;100.00
50103;BME280;35993;52.604;10.078;2023-03-16T01:23:19;101654.13;;;-0.80;100.00
50103;BME280;35993;52.604;10.078;2023-03-16T01:25:45;101646.75;;;-0.76;100.00
50103;BME280;35993;52.604;10.078;2023-03-16T01:28:20;101655.59;;;-0.76;100.00
50103;BME280;35993;52.604;10.078;2023-03-16T01:30:47;101645.66;;;-0.74;100.00
50103;BME280;35993;52.604;10.078;2023-03-16T01:33:13;101641.41;;;-0.76;100.00
50103;BME280;35993;52.604;10.078;2023-03-16T01:35:39;101636.56;;;-0.83;100.00
50103;BME280;35993;52.604;10.078;2023-03-16T01:38:05;101642.50;;;-0.79;100.00
50103;BME280;35993;52.604;10.078;2023-03-16T01:40:31;101636.22;;;-0.78;100.00
50103;BME280;35993;52.604;10.078;2023-03-16T01:43:01;101634.16;;;-0.86;100.00
50103;BME280;35993;52.604;10.078;2023-03-16T01:48:39;101636.44;;;-0.81;100.00
50103;BME280;35993;52.604;10.078;2023-03-16T01:51:11;101631.47;;;-0.86;100.00
50103;BME280;35993;52.604;10.078;2023-03-16T01:53:39;101629.78;;;-0.87;100.00
50103;BME280;35993;52.604;10.078;2023-03-16T01:56:08;101627.81;;;-0.96;100.00
50103;BME280;35993;52.604;10.078;2023-03-16T01:58:34;101626.72;;;-1.05;100.00
50103;BME280;35993;52.604;10.078;2023-03-16T02:01:01;101635.31;;;-1.01;100.00
50103;BME280;35993;52.604;10.078;2023-03-16T02:03:27;101632.56;;;-1.00;100.00
50103;BME280;35993;52.604;10.078;2023-03-16T02:06:06;101635.44;;;-1.03;100.00
50103;BME280;35993;52.604;10.078;2023-03-16T02:08:36;101633.84;;;-1.05;100.00
50103;BME280;35993;52.604;10.078;2023-03-16T02:11:04;101632.41;;;-1.09;100.00
50103;BME280;35993;52.604;10.078;2023-03-16T02:13:40;101633.50;;;-1.12;100.00
50103;BME280;35993;52.604;10.078;2023-03-16T02:16:07;101642.09;;;-1.08;100.00
50103;BME280;35993;52.604;10.078;2023-03-16T02:18:34;101636.91;;;-1.10;100.00
50103;BME280;35993;52.604;10.078;2023-03-16T02:23:46;101641.00;;;-1.17;100.00
50103;BME280;35993;52.604;10.078;2023-03-16T02:29:15;101635.28;;;-1.24;100.00
50103;BME280;35993;52.604;10.078;2023-03-16T02:31:45;101634.31;;;-1.23;100.00
50103;BME280;35993;52.604;10.078;2023-03-16T02:34:12;101638.78;;;-1.23;100.00
50103;BME280;35993;52.604;10.078;2023-03-16T02:36:39;101629.84;;;-1.22;100.00
50103;BME280;35993;52.604;10.078;2023-03-16T02:39:06;101630.06;;;-1.25;100.00
50103;BME280;35993;52.604;10.078;2023-03-16T02:41:40;101632.72;;;-1.25;100.00
50103;BME280;35993;52.604;10.078;2023-03-16T02:44:14;101630.16;;;-1.27;100.00
50103;BME280;35993;52.604;10.078;2023-03-16T02:46:42;101618.06;;;-1.31;100.00
50103;BME280;35993;52.604;10.078;2023-03-16T02:51:37;101622.75;;;-1.35;100.00
50103;BME280;35993;52.604;10.078;2023-03-16T02:54:03;101614.78;;;-1.35;100.00
50103;BME280;35993;52.604;10.078;2023-03-16T02:56:31;101616.59;;;-1.35;100.00
50103;BME280;35993;52.604;10.078;2023-03-16T02:58:56;101614.91;;;-1.36;100.00
50103;BME280;35993;52.604;10.078;2023-03-16T03:01:22;101612.34;;;-1.38;100.00
50103;BME280;35993;52.604;10.078;2023-03-16T03:03:48;101604.59;;;-1.41;100.00
50103;BME280;35993;52.604;10.078;2023-03-16T03:06:14;101604.69;;;-1.42;100.00
50103;BME280;35993;52.604;10.078;2023-03-16T03:08:40;101609.81;;;-1.39;100.00
50103;BME280;35993;52.604;10.078;2023-03-16T03:11:07;101602.03;;;-1.42;100.00
50103;BME280;35993;52.604;10.078;2023-03-16T03:13:34;101606.03;;;-1.48;100.00
50103;BME280;35993;52.604;10.078;2023-03-16T03:16:03;101608.91;;;-1.51;100.00
50103;BME280;35993;52.604;10.078;2023-03-16T03:18:28;101604.03;;;-1.57;100.00
50103;BME280;35993;52.604;10.078;2023-03-16T03:20:54;101608.53;;;-1.58;100.00
50103;BME280;35993;52.604;10.078;2023-03-16T03:23:19;101604.03;;;-1.57;100.00
50103;BME280;35993;52.604;10.078;2023-03-16T03:25:45;101607.00;;;-1.49;100.00
50103;BME280;35993;52.604;10.078;2023-03-16T03:28:12;101606.66;;;-1.44;100.00
50103;BME280;35993;52.604;10.078;2023-03-16T03:30:39;101609.16;;;-1.54;100.00
50103;BME280;35993;52.604;10.078;2023-03-16T03:33:04;101607.69;;;-1.58;100.00
50103;BME280;35993;52.604;10.078;2023-03-16T03:35:30;101604.78;;;-1.55;100.00
50103;BME280;35993;52.604;10.078;2023-03-16T03:37:56;101613.28;;;-1.50;100.00
50103;BME280;35993;52.604;10.078;2023-03-16T03:40:22;101613.53;;;-1.53;100.00
50103;BME280;35993;52.604;10.078;2023-03-16T03:42:55;101611.06;;;-1.56;100.00
50103;BME280;35993;52.604;10.078;2023-03-16T03:45:21;101613.97;;;-1.59;100.00
50103;BME280;35993;52.604;10.078;2023-03-16T03:47:47;101611.06;;;-1.56;100.00
50103;BME280;35993;52.604;10.078;2023-03-16T03:50:17;101613.22;;;-1.61;100.00
50103;BME280;35993;52.604;10.078;2023-03-16T03:53:00;101619.75;;;-1.66;100.00
50103;BME280;35993;52.604;10.078;2023-03-16T03:55:29;101619.44;;;-1.61;100.00
50103;BME280;35993;52.604;10.078;2023-03-16T03:57:54;101624.28;;;-1.55;100.00
50103;BME280;35993;52.604;10.078;2023-03-16T04:00:20;101618.22;;;-1.57;100.00
50103;BME280;35993;52.604;10.078;2023-03-16T04:02:46;101617.94;;;-1.65;100.00
50103;BME280;35993;52.604;10.078;2023-03-16T04:05:21;101619.88;;;-1.67;100.00
50103;BME280;35993;52.604;10.078;2023-03-16T04:07:48;101619.88;;;-1.67;100.00
50103;BME280;35993;52.604;10.078;2023-03-16T04:10:19;101622.88;;;-1.72;100.00
50103;BME280;35993;52.604;10.078;2023-03-16T04:12:45;101621.91;;;-1.71;100.00
50103;BME280;35993;52.604;10.078;2023-03-16T04:15:12;101618.88;;;-1.77;100.00
50103;BME280;35993;52.604;10.078;2023-03-16T04:17:47;101612.16;;;-1.83;100.00
50103;BME280;35993;52.604;10.078;2023-03-16T04:20:14;101610.72;;;-1.87;100.00
50103;BME280;35993;52.604;10.078;2023-03-16T04:22:47;101608.28;;;-1.90;100.00
50103;BME280;35993;52.604;10.078;2023-03-16T04:25:15;101607.22;;;-1.88;100.00
50103;BME280;35993;52.604;10.078;2023-03-16T04:27:42;101611.44;;;-1.85;100.00
50103;BME280;35993;52.604;10.078;2023-03-16T04:30:12;101609.63;;;-1.85;100.00
50103;BME280;35993;52.604;10.078;2023-03-16T04:32:42;101607.53;;;-1.92;100.00
50103;BME280;35993;52.604;10.078;2023-03-16T04:35:09;101605.19;;;-1.97;100.00
50103;BME280;35993;52.604;10.078;2023-03-16T04:37:43;101612.09;;;-1.94;100.00
50103;BME280;35993;52.604;10.078;2023-03-16T04:40:09;101612.53;;;-1.88;100.00
50103;BME280;35993;52.604;10.078;2023-03-16T04:42:46;101615.19;;;-1.88;100.00
50103;BME280;35993;52.604;10.078;2023-03-16T04:45:15;101619.31;;;-1.84;100.00
50103;BME280;35993;52.604;10.078;2023-03-16T04:47:42;101615.91;;;-1.86;100.00
50103;BME280;35993;52.604;10.078;2023-03-16T04:50:08;101617.50;;;-1.83;100.00
50103;BME280;35993;52.604;10.078;2023-03-16T04:52:35;101612.69;;;-1.78;100.00
50103;BME280;35993;52.604;10.078;2023-03-16T04:55:01;101612.91;;;-1.81;100.00
50103;BME280;35993;52.604;10.078;2023-03-16T04:57:28;101607.28;;;-1.89;100.00
50103;BME280;35993;52.604;10.078;2023-03-16T04:59:55;101613.69;;;-1.92;100.00
50103;BME280;35993;52.604;10.078;2023-03-16T05:02:29;101619.38;;;-1.96;100.00
50103;BME280;35993;52.604;10.078;2023-03-16T05:04:58;101615.25;;;-2.01;100.00
50103;BME280;35993;52.604;10.078;2023-03-16T05:07:24;101616.09;;;-2.00;100.00
50103;BME280;35993;52.604;10.078;2023-03-16T05:09:52;101626.41;;;-1.95;100.00
50103;BME280;35993;52.604;10.078;2023-03-16T05:12:19;101623.75;;;-1.95;100.00
50103;BME280;35993;52.604;10.078;2023-03-16T05:14:45;101624.69;;;-1.96;100.00
50103;BME280;35993;52.604;10.078;2023-03-16T05:17:31;101614.06;;;-1.96;100.00
50103;BME280;35993;52.604;10.078;2023-03-16T05:19:57;101618.63;;;-1.99;100.00
50103;BME280;35993;52.604;10.078;2023-03-16T05:22:23;101603.75;;;-2.01;100.00
50103;BME280;35993;52.604;10.078;2023-03-16T05:25:05;101607.66;;;-1.94;100.00
50103;BME280;35993;52.604;10.078;2023-03-16T05:27:32;101607.78;;;-1.95;100.00
50103;BME280;35993;52.604;10.078;2023-03-16T05:29:58;101601.72;;;-1.98;100.00
50103;BME280;35993;52.604;10.078;2023-03-16T05:32:29;101604.38;;;-1.98;100.00
50103;BME280;35993;52.604;10.078;2023-03-16T05:34:55;101588.66;;;-1.89;100.00
50103;BME280;35993;52.604;10.078;2023-03-16T05:37:22;101593.53;;;-1.83;100.00
50103;BME280;35993;52.604;10.078;2023-03-16T05:39:48;101601.31;;;-1.80;100.00
50103;BME280;35993;52.604;10.078;2023-03-16T05:42:14;101598.19;;;-1.74;100.00
50103;BME280;35993;52.604;10.078;2023-03-16T05:44:50;101597.63;;;-1.66;100.00
50103;BME280;35993;52.604;10.078;2023-03-16T05:47:26;101595.69;;;-1.64;100.00
50103;BME280;35993;52.604;10.078;2023-03-16T05:49:55;101594.47;;;-1.60;100.00
50103;BME280;35993;52.604;10.078;2023-03-16T05:52:41;101592.97;;;-1.40;100.00
50103;BME280;35993;52.604;10.078;2023-03-16T05:55:15;101585.84;;;-1.28;100.00
50103;BME280;35993;52.604;10.078;2023-03-16T05:57:43;101578.03;;;-1.07;100.00
50103;BME280;35993;52.604;10.078;2023-03-16T06:00:10;101583.97;;;-0.92;100.00
50103;BME280;35993;52.604;10.078;2023-03-16T06:02:45;101575.97;;;-0.80;100.00
50103;BME280;35993;52.604;10.078;2023-03-16T06:05:15;101578.41;;;-0.66;100.00
50103;BME280;35993;52.604;10.078;2023-03-16T06:07:44;101585.53;;;-0.55;100.00
50103;BME280;35993;52.604;10.078;2023-03-16T06:10:10;101587.56;;;-0.36;100.00
50103;BME280;35993;52.604;10.078;2023-03-16T06:12:37;101594.94;;;-0.17;100.00
50103;BME280;35993;52.604;10.078;2023-03-16T06:15:04;101590.03;;;-0.01;100.00
50103;BME280;35993;52.604;10.078;2023-03-16T06:17:35;101602.53;;;0.10;100.00
50103;BME280;35993;52.604;10.078;2023-03-16T06:20:02;101594.34;;;0.23;100.00
50103;BME280;35993;52.604;10.078;2023-03-16T06:22:33;101600.59;;;0.34;100.00
50103;BME280;35993;52.604;10.078;2023-03-16T06:24:59;101594.81;;;0.49;100.00
50103;BME280;35993;52.604;10.078;2023-03-16T06:27:25;101589.88;;;0.66;99.73
50103;BME280;35993;52.604;10.078;2023-03-16T06:30:17;101595.31;;;0.86;98.04
50103;BME280;35993;52.604;10.078;2023-03-16T06:32:43;101591.75;;;0.96;97.20
50103;BME280;35993;52.604;10.078;2023-03-16T06:35:10;101590.94;;;1.06;96.11
50103;BME280;35993;52.604;10.078;2023-03-16T06:37:43;101602.63;;;1.05;96.11
50103;BME280;35993;52.604;10.078;2023-03-16T06:40:24;101605.69;;;1.00;96.19
50103;BME280;35993;52.604;10.078;2023-03-16T06:42:50;101614.19;;;1.05;95.32
50103;BME280;35993;52.604;10.078;2023-03-16T06:45:16;101611.34;;;1.07;95.86
50103;BME280;35993;52.604;10.078;2023-03-16T06:47:43;101612.34;;;1.06;96.47
50103;BME280;35993;52.604;10.078;2023-03-16T06:50:09;101615.16;;;1.04;95.87
50103;BME280;35993;52.604;10.078;2023-03-16T06:52:36;101607.72;;;1.08;95.35
50103;BME280;35993;52.604;10.078;2023-03-16T06:55:01;101620.28;;;1.17;95.67
50103;BME280;35993;52.604;10.078;2023-03-16T06:57:29;101605.66;;;1.21;95.13
50103;BME280;35993;52.604;10.078;2023-03-16T06:59:55;101612.25;;;1.17;93.93
50103;BME280;35993;52.604;10.078;2023-03-16T07:02:21;101617.75;;;1.16;94.30
50103;BME280;35993;52.604;10.078;2023-03-16T07:04:48;101621.25;;;1.16;94.31
50103;BME280;35993;52.604;10.078;2023-03-16T07:07:15;101628.03;;;1.20;93.90
50103;BME280;35993;52.604;10.078;2023-03-16T07:09:44;101631.28;;;1.24;93.76
50103;BME280;35993;52.604;10.078;2023-03-16T07:12:10;101632.97;;;1.25;93.97
50103;BME280;35993;52.604;10.078;2023-03-16T07:14:36;101635.97;;;1.31;93.34
50103;BME280;35993;52.604;10.078;2023-03-16T07:17:02;101631.34;;;1.34;93.03
50103;BME280;35993;52.604;10.078;2023-03-16T07:19:28;101643.88;;;1.33;92.55
50103;BME280;35993;52.604;10.078;2023-03-16T07:21:58;101641.50;;;1.40;92.27
50103;BME280;35993;52.604;10.078;2023-03-16T07:24:25;101652.81;;;1.53;92.71
50103;BME280;35993;52.604;10.078;2023-03-16T07:26:50;101648.09;;;1.67;91.60
50103;BME280;35993;52.604;10.078;2023-03-16T07:29:24;101647.88;;;1.79;90.41
50103;BME280;35993;52.604;10.078;2023-03-16T07:31:50;101645.88;;;1.82;89.82
50103;BME280;35993;52.604;10.078;2023-03-16T07:34:19;101650.69;;;1.88;88.67
50103;BME280;35993;52.604;10.078;2023-03-16T07:36:50;101645.78;;;1.93;87.79
50103;BME280;35993;52.604;10.078;2023-03-16T07:39:17;101648.19;;;1.96;87.55
50103;BME280;35993;52.604;10.078;2023-03-16T07:41:43;101655.09;;;1.99;87.50
50103;BME280;35993;52.604;10.078;2023-03-16T07:44:32;101646.94;;;2.00;86.66
50103;BME280;35993;52.604;10.078;2023-03-16T07:46:57;101650.63;;;2.09;85.95
50103;BME280;35993;52.604;10.078;2023-03-16T07:49:26;101648.66;;;2.21;86.33
50103;BME280;35993;52.604;10.078;2023-03-16T07:51:54;101649.50;;;2.31;85.86
50103;BME280;35993;52.604;10.078;2023-03-16T07:54:25;101642.88;;;2.35;84.42
50103;BME280;35993;52.604;10.078;2023-03-16T07:56:50;101642.47;;;2.40;83.72
50103;BME280;35993;52.604;10.078;2023-03-16T07:59:34;101641.19;;;2.44;84.45
50103;BME280;35993;52.604;10.078;2023-03-16T08:02:00;101640.47;;;2.52;83.72
50103;BME280;35993;52.604;10.078;2023-03-16T08:04:26;101643.47;;;2.58;83.68
50103;BME280;35993;52.604;10.078;2023-03-16T08:06:51;101643.59;;;2.67;83.15
50103;BME280;35993;52.604;10.078;2023-03-16T08:09:23;101653.19;;;2.79;83.02
50103;BME280;35993;52.604;10.078;2023-03-16T08:11:48;101658.41;;;2.90;83.26
50103;BME280;35993;52.604;10.078;2023-03-16T08:14:15;101653.44;;;2.95;81.38
50103;BME280;35993;52.604;10.078;2023-03-16T08:16:55;101659.66;;;3.06;81.75
50103;BME280;35993;52.604;10.078;2023-03-16T08:19:22;101656.09;;;3.15;81.83
50103;BME280;35993;52.604;10.078;2023-03-16T08:21:49;101653.38;;;3.25;80.90
50103;BME280;35993;52.604;10.078;2023-03-16T08:24:15;101650.81;;;3.33;79.93
50103;BME280;35993;52.604;10.078;2023-03-16T08:26:41;101651.38;;;3.37;79.36
50103;BME280;35993;52.604;10.078;2023-03-16T08:29:07;101647.94;;;3.44;80.50
50103;BME280;35993;52.604;10.078;2023-03-16T08:31:35;101661.59;;;3.61;80.54
50103;BME280;35993;52.604;10.078;2023-03-16T08:34:09;101658.31;;;3.67;80.67
50103;BME280;35993;52.604;10.078;2023-03-16T08:36:39;101648.38;;;3.77;79.52
50103;BME280;35993;52.604;10.078;2023-03-16T08:39:08;101652.13;;;3.85;78.45
50103;BME280;35993;52.604;10.078;2023-03-16T08:41:40;101651.31;;;3.84;77.40
50103;BME280;35993;52.604;10.078;2023-03-16T08:44:16;101641.75;;;4.00;77.49
50103;BME280;35993;52.604;10.078;2023-03-16T08:46:41;101646.34;;;4.07;76.66
50103;BME280;35993;52.604;10.078;2023-03-16T08:49:07;101644.75;;;4.15;76.59
50103;BME280;35993;52.604;10.078;2023-03-16T08:51:33;101645.22;;;4.28;77.03
50103;BME280;35993;52.604;10.078;2023-03-16T08:53:58;101640.84;;;4.27;75.96
50103;BME280;35993;52.604;10.078;2023-03-16T08:56:24;101650.38;;;4.39;75.49
50103;BME280;35993;52.604;10.078;2023-03-16T08:58:50;101643.78;;;4.52;74.67
50103;BME280;35993;52.604;10.078;2023-03-16T09:01:18;101643.16;;;4.58;74.67
50103;BME280;35993;52.604;10.078;2023-03-16T09:03:44;101629.72;;;4.58;72.21
50103;BME280;35993;52.604;10.078;2023-03-16T09:06:12;101636.94;;;4.57;72.57
50103;BME280;35993;52.604;10.078;2023-03-16T09:08:39;101647.41;;;4.61;73.77
50103;BME280;35993;52.604;10.078;2023-03-16T09:11:08;101636.84;;;4.67;71.60
50103;BME280;35993;52.604;10.078;2023-03-16T09:13:34;101630.31;;;4.70;69.19
50103;BME280;35993;52.604;10.078;2023-03-16T09:16:01;101630.91;;;4.82;68.90
50103;BME280;35993;52.604;10.078;2023-03-16T09:18:27;101626.09;;;4.93;68.15
50103;BME280;35993;52.604;10.078;2023-03-16T09:20:57;101612.97;;;4.90;65.32
50103;BME280;35993;52.604;10.078;2023-03-16T09:23:23;101605.81;;;4.99;65.68
50103;BME280;35993;52.604;10.078;2023-03-16T09:25:48;101597.34;;;5.20;65.33
50103;BME280;35993;52.604;10.078;2023-03-16T09:28:15;101602.16;;;5.35;64.76
50103;BME280;35993;52.604;10.078;2023-03-16T09:30:42;101595.44;;;5.39;64.19
50103;BME280;35993;52.604;10.078;2023-03-16T09:33:07;101601.53;;;5.49;64.17
50103;BME280;35993;52.604;10.078;2023-03-16T09:35:33;101584.56;;;5.57;62.89
50103;BME280;35993;52.604;10.078;2023-03-16T09:37:59;101583.09;;;5.63;62.91
50103;BME280;35993;52.604;10.078;2023-03-16T09:40:26;101588.63;;;5.61;62.54
50103;BME280;35993;52.604;10.078;2023-03-16T09:48:14;101575.75;;;5.98;61.15
50103;BME280;35993;52.604;10.078;2023-03-16T09:50:41;101557.06;;;5.96;58.70
50103;BME280;35993;52.604;10.078;2023-03-16T09:55:54;101548.84;;;6.06;56.68
50103;BME280;35993;52.604;10.078;2023-03-16T10:05:27;101537.59;;;6.27;54.02
50103;BME280;35993;52.604;10.078;2023-03-16T10:08:20;101533.72;;;6.21;51.92
50103;BME280;35993;52.604;10.078;2023-03-16T10:16:46;101518.88;;;6.42;51.45
50103;BME280;35993;52.604;10.078;2023-03-16T10:19:33;101532.69;;;6.47;51.08
50103;BME280;35993;52.604;10.078;2023-03-16T10:22:30;101531.31;;;6.60;51.59
50103;BME280;35993;52.604;10.078;2023-03-16T10:25:06;101530.28;;;6.77;51.09
50103;BME280;35993;52.604;10.078;2023-03-16T10:27:38;101529.09;;;6.80;51.64
50103;BME280;35993;52.604;10.078;2023-03-16T10:30:19;101528.41;;;6.86;50.88
50103;BME280;35993;52.604;10.078;2023-03-16T10:32:47;101517.97;;;6.75;49.10
50103;BME280;35993;52.604;10.078;2023-03-16T10:37:47;101516.56;;;6.95;49.59
50103;BME280;35993;52.604;10.078;2023-03-16T10:40:14;101516.03;;;7.08;49.76
50103;BME280;35993;52.604;10.078;2023-03-16T10:42:40;101512.63;;;7.14;50.56
50103;BME280;35993;52.604;10.078;2023-03-16T10:45:19;101502.97;;;7.28;49.81
50103;BME280;35993;52.604;10.078;2023-03-16T10:47:47;101506.34;;;7.30;49.67
50103;BME280;35993;52.604;10.078;2023-03-16T10:50:14;101502.50;;;7.48;49.84
50103;BME280;35993;52.604;10.078;2023-03-16T10:52:45;101492.31;;;7.58;48.57
50103;BME280;35993;52.604;10.078;2023-03-16T10:55:31;101484.22;;;7.58;47.75
50103;BME280;35993;52.604;10.078;2023-03-16T10:58:07;101476.97;;;7.59;47.27
50103;BME280;35993;52.604;10.078;2023-03-16T11:00:35;101468.16;;;7.65;46.17
50103;BME280;35993;52.604;10.078;2023-03-16T11:03:18;101475.38;;;7.73;47.43
50103;BME280;35993;52.604;10.078;2023-03-16T11:05:55;101470.06;;;7.79;46.08
50103;BME280;35993;52.604;10.078;2023-03-16T11:08:24;101463.09;;;7.62;45.47
50103;BME280;35993;52.604;10.078;2023-03-16T11:10:56;101459.00;;;7.66;46.14
50103;BME280;35993;52.604;10.078;2023-03-16T11:13:30;101466.75;;;7.69;47.01
50103;BME280;35993;52.604;10.078;2023-03-16T11:18:40;101468.09;;;7.73;47.59
50103;BME280;35993;52.604;10.078;2023-03-16T11:21:26;101446.94;;;7.77;45.72
50103;BME280;35993;52.604;10.078;2023-03-16T11:23:57;101453.75;;;7.73;46.67
50103;BME280;35993;52.604;10.078;2023-03-16T11:26:35;101468.88;;;7.82;47.53
50103;BME280;35993;52.604;10.078;2023-03-16T11:29:24;101460.06;;;8.03;47.88
50103;BME280;35993;52.604;10.078;2023-03-16T11:32:19;101451.97;;;8.03;46.16
50103;BME280;35993;52.604;10.078;2023-03-16T11:34:48;101453.47;;;8.06;46.70
50103;BME280;35993;52.604;10.078;2023-03-16T11:42:45;101458.94;;;7.97;47.89
50103;BME280;35993;52.604;10.078;2023-03-16T11:53:16;101447.84;;;8.30;47.76
50103;BME280;35993;52.604;10.078;2023-03-16T11:58:33;101416.00;;;8.56;46.15
50103;BME280;35993;52.604;10.078;2023-03-16T12:11:55;101384.81;;;8.75;43.43
50103;BME280;35993;52.604;10.078;2023-03-16T12:14:40;101401.50;;;8.93;45.07
50103;BME280;35993;52.604;10.078;2023-03-16T12:17:29;101399.06;;;8.98;44.45
50103;BME280;35993;52.604;10.078;2023-03-16T12:20:02;101373.69;;;8.69;43.22
50103;BME280;35993;52.604;10.078;2023-03-16T12:22:40;101360.47;;;8.60;42.74
50103;BME280;35993;52.604;10.078;2023-03-16T12:25:17;101373.81;;;8.61;42.72
50103;BME280;35993;52.604;10.078;2023-03-16T12:27:54;101371.56;;;8.65;43.15
50103;BME280;35993;52.604;10.078;2023-03-16T12:30:49;101332.91;;;8.71;39.91
50103;BME280;35993;52.604;10.078;2023-03-16T12:36:02;101331.03;;;8.87;39.98
50103;BME280;35993;52.604;10.078;2023-03-16T12:38:50;101311.53;;;8.76;38.75
50103;BME280;35993;52.604;10.078;2023-03-16T12:46:40;101317.97;;;8.75;39.65
50103;BME280;35993;52.604;10.078;2023-03-16T12:49:07;101310.94;;;8.81;40.52
50103;BME280;35993;52.604;10.078;2023-03-16T12:51:39;101313.16;;;8.92;40.76
50103;BME280;35993;52.604;10.078;2023-03-16T12:54:18;101322.94;;;9.08;41.28
50103;BME280;35993;52.604;10.078;2023-03-16T12:56:46;101307.44;;;9.02;40.52
50103;BME280;35993;52.604;10.078;2023-03-16T12:59:18;101309.69;;;8.98;41.41
50103;BME280;35993;52.604;10.078;2023-03-16T13:01:47;101315.03;;;8.92;41.10
50103;BME280;35993;52.604;10.078;2023-03-16T13:04:30;101299.34;;;8.87;41.03
50103;BME280;35993;52.604;10.078;2023-03-16T13:07:21;101282.84;;;8.82;40.75
50103;BME280;35993;52.604;10.078;2023-03-16T13:10:01;101280.28;;;8.74;40.16
50103;BME280;35993;52.604;10.078;2023-03-16T13:12:30;101293.13;;;8.87;40.61
50103;BME280;35993;52.604;10.078;2023-03-16T13:14:57;101282.53;;;8.92;39.95
50103;BME280;35993;52.604;10.078;2023-03-16T13:17:30;101279.44;;;9.16;39.75
50103;BME280;35993;52.604;10.078;2023-03-16T13:25:21;101282.63;;;9.20;40.05
50103;BME280;35993;52.604;10.078;2023-03-16T13:27:54;101270.44;;;9.09;39.69
50103;BME280;35993;52.604;10.078;2023-03-16T13:30:23;101275.25;;;9.14;40.37
50103;BME280;35993;52.604;10.078;2023-03-16T13:32:59;101293.84;;;9.17;41.58
50103;BME280;35993;52.604;10.078;2023-03-16T13:35:28;101269.28;;;9.18;41.21
50103;BME280;35993;52.604;10.078;2023-03-16T13:38:05;101257.88;;;9.01;40.45
50103;BME280;35993;52.604;10.078;2023-03-16T13:40:31;101260.94;;;8.98;40.07
50103;BME280;35993;52.604;10.078;2023-03-16T13:42:58;101264.47;;;8.99;40.80
50103;BME280;35993;52.604;10.078;2023-03-16T13:45:31;101272.44;;;9.00;41.21
50103;BME280;35993;52.604;10.078;2023-03-16T13:47:58;101246.88;;;8.88;39.69
50103;BME280;35993;52.604;10.078;2023-03-16T13:50:25;101237.28;;;8.85;40.26
50103;BME280;35993;52.604;10.078;2023-03-16T13:52:58;101241.41;;;8.81;39.32
50103;BME280;35993;52.604;10.078;2023-03-16T13:55:34;101244.75;;;8.83;40.00
50103;BME280;35993;52.604;10.078;2023-03-16T13:58:01;101239.59;;;8.89;39.96
50103;BME280;35993;52.604;10.078;2023-03-16T14:00:34;101250.69;;;8.94;39.74
50103;BME280;35993;52.604;10.078;2023-03-16T14:03:13;101228.13;;;8.87;39.17
50103;BME280;35993;52.604;10.078;2023-03-16T14:05:40;101234.06;;;8.97;39.71
50103;BME280;35993;52.604;10.078;2023-03-16T14:08:22;101234.97;;;9.04;40.58
50103;BME280;35993;52.604;10.078;2023-03-16T14:10:50;101226.06;;;9.10;40.36
50103;BME280;35993;52.604;10.078;2023-03-16T14:16:00;101216.91;;;9.11;39.77